sensor_id;sensor_type;location;lat;lon;timestamp;P1;durP1;ratioP1;P2;durP2;ratioP2
10162;SDS011;5123;52.556;13.384;2023-07-20T00:01:17;12.20;;;4.90;;
10162;SDS011;5123;52.556;13.384;2023-07-20T00:03:50;5.73;;;5.17;;
10162;SDS011;5123;52.556;13.384;2023-07-20T00:06:26;6.50;;;5.10;;
10162;SDS011;5123;52.556;13.384;2023-07-20T00:08:59;6.83;;;5.00;;
10162;SDS011;5123;52.556;13.384;2023-07-20T00:11:35;6.33;;;5.10;;
10162;SDS011;5123;52.556;13.384;2023-07-20T00:14:08;5.53;;;5.03;;
10162;SDS011;5123;52.556;13.384;2023-07-20T00:16:42;5.90;;;5.00;;
10162;SDS011;5123;52.556;13.384;2023-07-20T00:19:14;5.23;;;4.73;;
10162;SDS011;5123;52.556;13.384;2023-07-20T00:21:48;7.40;;;5.47;;
10162;SDS011;5123;52.556;13.384;2023-07-20T00:24:20;5.00;;;4.40;;
10162;SDS011;5123;52.556;13.384;2023-07-20T00:26:53;5.90;;;5.37;;
10162;SDS011;5123;52.556;13.384;2023-07-20T00:29:26;7.07;;;5.20;;
10162;SDS011;5123;52.556;13.384;2023-07-20T00:32:00;5.40;;;4.90;;
10162;SDS011;5123;52.556;13.384;2023-07-20T00:34:33;6.47;;;5.53;;
10162;SDS011;5123;52.556;13.384;2023-07-20T00:37:06;5.20;;;4.77;;
10162;SDS011;5123;52.556;13.384;2023-07-20T00:39:38;6.23;;;5.53;;
10162;SDS011;5123;52.556;13.384;2023-07-20T00:42:11;6.13;;;5.63;;
10162;SDS011;5123;52.556;13.384;2023-07-20T00:44:44;5.67;;;5.17;;
10162;SDS011;5123;52.556;13.384;2023-07-20T00:47:18;5.67;;;5.27;;
10162;SDS011;5123;52.556;13.384;2023-07-20T00:49:51;6.73;;;6.00;;
10162;SDS011;5123;52.556;13.384;2023-07-20T00:52:24;8.00;;;5.77;;
10162;SDS011;5123;52.556;13.384;2023-07-20T00:54:57;7.03;;;5.70;;
10162;SDS011;5123;52.556;13.384;2023-07-20T00:57:30;6.37;;;5.57;;
10162;SDS011;5123;52.556;13.384;2023-07-20T01:00:04;7.10;;;5.50;;
10162;SDS011;5123;52.556;13.384;2023-07-20T01:02:39;6.63;;;5.77;;
10162;SDS011;5123;52.556;13.384;2023-07-20T01:05:13;7.43;;;5.60;;
10162;SDS011;5123;52.556;13.384;2023-07-20T01:07:50;6.53;;;5.93;;
10162;SDS011;5123;52.556;13.384;2023-07-20T01:10:25;6.53;;;5.93;;
10162;SDS011;5123;52.556;13.384;2023-07-20T01:13:01;6.67;;;6.00;;
10162;SDS011;5123;52.556;13.384;2023-07-20T01:15:35;6.30;;;5.80;;
10162;SDS011;5123;52.556;13.384;2023-07-20T01:18:09;6.70;;;6.00;;
10162;SDS011;5123;52.556;13.384;2023-07-20T01:20:41;6.97;;;6.07;;
10162;SDS011;5123;52.556;13.384;2023-07-20T01:23:22;5.40;;;5.00;;
10162;SDS011;5123;52.556;13.384;2023-07-20T01:26:07;6.03;;;5.50;;
10162;SDS011;5123;52.556;13.384;2023-07-20T01:28:57;6.63;;;6.03;;
10162;SDS011;5123;52.556;13.384;2023-07-20T01:31:43;6.33;;;5.77;;
10162;SDS011;5123;52.556;13.384;2023-07-20T01:34:17;6.37;;;5.50;;
10162;SDS011;5123;52.556;13.384;2023-07-20T01:36:51;6.87;;;6.17;;
10162;SDS011;5123;52.556;13.384;2023-07-20T01:39:24;6.40;;;5.80;;
10162;SDS011;5123;52.556;13.384;2023-07-20T01:42:00;7.17;;;6.43;;
10162;SDS011;5123;52.556;13.384;2023-07-20T01:44:33;7.47;;;6.77;;
10162;SDS011;5123;52.556;13.384;2023-07-20T01:47:08;6.70;;;5.90;;
10162;SDS011;5123;52.556;13.384;2023-07-20T01:49:42;6.20;;;5.63;;
10162;SDS011;5123;52.556;13.384;2023-07-20T01:52:15;7.33;;;6.63;;
10162;SDS011;5123;52.556;13.384;2023-07-20T01:54:47;7.47;;;6.77;;
10162;SDS011;5123;52.556;13.384;2023-07-20T01:57:20;11.17;;;6.80;;
10162;SDS011;5123;52.556;13.384;2023-07-20T01:59:53;6.77;;;5.60;;
10162;SDS011;5123;52.556;13.384;2023-07-20T02:02:27;7.10;;;6.50;;
10162;SDS011;5123;52.556;13.384;2023-07-20T02:05:00;6.20;;;5.67;;
10162;SDS011;5123;52.556;13.384;2023-07-20T02:07:35;6.97;;;6.30;;
10162;SDS011;5123;52.556;13.384;2023-07-20T02:10:08;7.23;;;6.63;;
10162;SDS011;5123;52.556;13.384;2023-07-20T02:12:41;6.87;;;6.27;;
10162;SDS011;5123;52.556;13.384;2023-07-20T02:15:14;6.93;;;6.33;;
10162;SDS011;5123;52.556;13.384;2023-07-20T02:17:49;6.20;;;5.60;;
10162;SDS011;5123;52.556;13.384;2023-07-20T02:20:22;6.80;;;6.30;;
10162;SDS011;5123;52.556;13.384;2023-07-20T02:22:54;7.87;;;6.70;;
10162;SDS011;5123;52.556;13.384;2023-07-20T02:25:28;7.97;;;7.27;;
10162;SDS011;5123;52.556;13.384;2023-07-20T02:28:00;7.63;;;7.03;;
10162;SDS011;5123;52.556;13.384;2023-07-20T02:30:33;9.20;;;8.40;;
10162;SDS011;5123;52.556;13.384;2023-07-20T02:33:10;9.43;;;8.47;;
10162;SDS011;5123;52.556;13.384;2023-07-20T02:35:43;10.33;;;9.33;;
10162;SDS011;5123;52.556;13.384;2023-07-20T02:38:16;8.77;;;7.90;;
10162;SDS011;5123;52.556;13.384;2023-07-20T02:40:48;10.77;;;9.40;;
10162;SDS011;5123;52.556;13.384;2023-07-20T02:43:21;11.70;;;10.50;;
10162;SDS011;5123;52.556;13.384;2023-07-20T02:45:54;12.27;;;11.07;;
10162;SDS011;5123;52.556;13.384;2023-07-20T02:48:29;11.30;;;10.20;;
10162;SDS011;5123;52.556;13.384;2023-07-20T02:51:04;11.70;;;10.57;;
10162;SDS011;5123;52.556;13.384;2023-07-20T02:53:39;14.23;;;10.27;;
10162;SDS011;5123;52.556;13.384;2023-07-20T02:56:13;11.23;;;10.17;;
10162;SDS011;5123;52.556;13.384;2023-07-20T02:58:45;11.50;;;10.40;;
10162;SDS011;5123;52.556;13.384;2023-07-20T03:01:18;12.03;;;10.50;;
10162;SDS011;5123;52.556;13.384;2023-07-20T03:03:52;12.20;;;11.00;;
10162;SDS011;5123;52.556;13.384;2023-07-20T03:06:25;12.53;;;10.67;;
10162;SDS011;5123;52.556;13.384;2023-07-20T03:08:58;12.27;;;10.97;;
10162;SDS011;5123;52.556;13.384;2023-07-20T03:11:31;11.20;;;10.10;;
10162;SDS011;5123;52.556;13.384;2023-07-20T03:14:04;11.47;;;10.27;;
10162;SDS011;5123;52.556;13.384;2023-07-20T03:16:37;11.43;;;10.23;;
10162;SDS011;5123;52.556;13.384;2023-07-20T03:19:11;11.93;;;10.73;;
10162;SDS011;5123;52.556;13.384;2023-07-20T03:21:44;11.57;;;10.27;;
10162;SDS011;5123;52.556;13.384;2023-07-20T03:24:17;12.13;;;10.90;;
10162;SDS011;5123;52.556;13.384;2023-07-20T03:26:50;11.33;;;10.23;;
10162;SDS011;5123;52.556;13.384;2023-07-20T03:29:22;11.93;;;10.77;;
10162;SDS011;5123;52.556;13.384;2023-07-20T03:31:55;11.40;;;10.40;;
10162;SDS011;5123;52.556;13.384;2023-07-20T03:34:31;11.50;;;10.30;;
10162;SDS011;5123;52.556;13.384;2023-07-20T03:37:05;11.50;;;10.40;;
10162;SDS011;5123;52.556;13.384;2023-07-20T03:39:37;12.63;;;11.03;;
10162;SDS011;5123;52.556;13.384;2023-07-20T03:42:10;10.60;;;9.50;;
10162;SDS011;5123;52.556;13.384;2023-07-20T03:44:43;11.00;;;9.97;;
10162;SDS011;5123;52.556;13.384;2023-07-20T03:47:16;11.20;;;10.10;;
10162;SDS011;5123;52.556;13.384;2023-07-20T03:49:50;11.27;;;9.87;;
10162;SDS011;5123;52.556;13.384;2023-07-20T03:52:23;10.87;;;9.77;;
10162;SDS011;5123;52.556;13.384;2023-07-20T03:54:55;13.63;;;12.10;;
10162;SDS011;5123;52.556;13.384;2023-07-20T03:57:28;13.73;;;11.73;;
10162;SDS011;5123;52.556;13.384;2023-07-20T04:00:04;14.10;;;11.70;;
10162;SDS011;5123;52.556;13.384;2023-07-20T04:02:39;13.17;;;11.60;;
10162;SDS011;5123;52.556;13.384;2023-07-20T04:05:13;15.93;;;11.47;;
10162;SDS011;5123;52.556;13.384;2023-07-20T04:07:46;11.87;;;10.77;;
10162;SDS011;5123;52.556;13.384;2023-07-20T04:10:19;13.73;;;10.93;;
10162;SDS011;5123;52.556;13.384;2023-07-20T04:12:51;13.30;;;11.23;;
10162;SDS011;5123;52.556;13.384;2023-07-20T04:15:24;12.00;;;10.70;;
10162;SDS011;5123;52.556;13.384;2023-07-20T04:17:57;11.73;;;10.53;;
10162;SDS011;5123;52.556;13.384;2023-07-20T04:20:31;12.33;;;9.73;;
10162;SDS011;5123;52.556;13.384;2023-07-20T04:23:04;10.80;;;9.27;;
10162;SDS011;5123;52.556;13.384;2023-07-20T04:25:38;12.43;;;9.90;;
10162;SDS011;5123;52.556;13.384;2023-07-20T04:28:11;10.20;;;8.87;;
10162;SDS011;5123;52.556;13.384;2023-07-20T04:30:44;10.53;;;9.47;;
10162;SDS011;5123;52.556;13.384;2023-07-20T04:33:17;10.50;;;9.50;;
10162;SDS011;5123;52.556;13.384;2023-07-20T04:35:51;10.87;;;9.77;;
10162;SDS011;5123;52.556;13.384;2023-07-20T04:38:25;10.37;;;9.47;;
10162;SDS011;5123;52.556;13.384;2023-07-20T04:40:57;11.13;;;9.97;;
10162;SDS011;5123;52.556;13.384;2023-07-20T04:43:30;10.67;;;9.77;;
10162;SDS011;5123;52.556;13.384;2023-07-20T04:46:03;10.93;;;9.93;;
10162;SDS011;5123;52.556;13.384;2023-07-20T04:48:38;11.10;;;10.07;;
10162;SDS011;5123;52.556;13.384;2023-07-20T04:51:13;11.53;;;10.37;;
10162;SDS011;5123;52.556;13.384;2023-07-20T04:53:48;11.07;;;9.97;;
10162;SDS011;5123;52.556;13.384;2023-07-20T04:56:21;10.03;;;9.03;;
10162;SDS011;5123;52.556;13.384;2023-07-20T04:58:55;10.23;;;9.23;;
10162;SDS011;5123;52.556;13.384;2023-07-20T05:01:28;9.30;;;8.50;;
10162;SDS011;5123;52.556;13.384;2023-07-20T05:04:02;10.07;;;9.17;;
10162;SDS011;5123;52.556;13.384;2023-07-20T05:06:36;9.57;;;8.63;;
10162;SDS011;5123;52.556;13.384;2023-07-20T05:09:10;10.27;;;8.17;;
10162;SDS011;5123;52.556;13.384;2023-07-20T05:11:43;9.77;;;8.07;;
10162;SDS011;5123;52.556;13.384;2023-07-20T05:14:18;8.93;;;8.13;;
10162;SDS011;5123;52.556;13.384;2023-07-20T05:16:53;7.17;;;6.53;;
10162;SDS011;5123;52.556;13.384;2023-07-20T05:19:25;8.50;;;7.57;;
10162;SDS011;5123;52.556;13.384;2023-07-20T05:22:00;8.70;;;7.60;;
10162;SDS011;5123;52.556;13.384;2023-07-20T05:24:32;9.03;;;8.13;;
10162;SDS011;5123;52.556;13.384;2023-07-20T05:27:06;8.40;;;7.70;;
10162;SDS011;5123;52.556;13.384;2023-07-20T05:29:43;8.47;;;7.67;;
10162;SDS011;5123;52.556;13.384;2023-07-20T05:32:18;9.20;;;7.53;;
10162;SDS011;5123;52.556;13.384;2023-07-20T05:34:51;9.17;;;7.83;;
10162;SDS011;5123;52.556;13.384;2023-07-20T05:37:25;9.13;;;8.33;;
10162;SDS011;5123;52.556;13.384;2023-07-20T05:39:58;8.63;;;7.83;;
10162;SDS011;5123;52.556;13.384;2023-07-20T05:42:31;11.27;;;8.30;;
10162;SDS011;5123;52.556;13.384;2023-07-20T05:45:04;8.80;;;7.97;;
10162;SDS011;5123;52.556;13.384;2023-07-20T05:47:37;8.67;;;7.77;;
10162;SDS011;5123;52.556;13.384;2023-07-20T05:50:10;8.27;;;7.57;;
10162;SDS011;5123;52.556;13.384;2023-07-20T05:52:44;8.87;;;8.17;;
10162;SDS011;5123;52.556;13.384;2023-07-20T05:55:17;9.00;;;8.23;;
10162;SDS011;5123;52.556;13.384;2023-07-20T05:57:50;8.97;;;8.07;;
10162;SDS011;5123;52.556;13.384;2023-07-20T06:00:23;9.93;;;7.93;;
10162;SDS011;5123;52.556;13.384;2023-07-20T06:02:58;9.03;;;7.77;;
10162;SDS011;5123;52.556;13.384;2023-07-20T06:05:31;9.20;;;7.53;;
10162;SDS011;5123;52.556;13.384;2023-07-20T06:08:05;8.93;;;7.20;;
10162;SDS011;5123;52.556;13.384;2023-07-20T06:10:39;8.37;;;6.77;;
10162;SDS011;5123;52.556;13.384;2023-07-20T06:13:15;6.63;;;6.03;;
10162;SDS011;5123;52.556;13.384;2023-07-20T06:15:48;7.70;;;7.00;;
10162;SDS011;5123;52.556;13.384;2023-07-20T06:18:22;7.03;;;6.40;;
10162;SDS011;5123;52.556;13.384;2023-07-20T06:20:54;7.07;;;6.47;;
10162;SDS011;5123;52.556;13.384;2023-07-20T06:23:29;6.47;;;5.87;;
10162;SDS011;5123;52.556;13.384;2023-07-20T06:26:02;7.83;;;6.07;;
10162;SDS011;5123;52.556;13.384;2023-07-20T06:28:34;6.57;;;5.90;;
10162;SDS011;5123;52.556;13.384;2023-07-20T06:31:07;6.93;;;6.30;;
10162;SDS011;5123;52.556;13.384;2023-07-20T06:33:40;7.00;;;6.40;;
10162;SDS011;5123;52.556;13.384;2023-07-20T06:36:13;7.33;;;6.27;;
10162;SDS011;5123;52.556;13.384;2023-07-20T06:38:47;5.93;;;5.30;;
10162;SDS011;5123;52.556;13.384;2023-07-20T06:41:26;4.40;;;4.00;;
10162;SDS011;5123;52.556;13.384;2023-07-20T06:44:01;7.37;;;4.90;;
10162;SDS011;5123;52.556;13.384;2023-07-20T06:46:36;6.57;;;4.17;;
10162;SDS011;5123;52.556;13.384;2023-07-20T06:49:09;6.67;;;4.50;;
10162;SDS011;5123;52.556;13.384;2023-07-20T06:51:44;4.97;;;4.43;;
10162;SDS011;5123;52.556;13.384;2023-07-20T06:54:20;4.40;;;4.00;;
10162;SDS011;5123;52.556;13.384;2023-07-20T06:56:54;5.83;;;3.63;;
10162;SDS011;5123;52.556;13.384;2023-07-20T06:59:30;5.10;;;3.60;;
10162;SDS011;5123;52.556;13.384;2023-07-20T07:02:03;3.90;;;3.60;;
10162;SDS011;5123;52.556;13.384;2023-07-20T07:04:35;4.00;;;3.70;;
10162;SDS011;5123;52.556;13.384;2023-07-20T07:07:08;4.23;;;3.30;;
10162;SDS011;5123;52.556;13.384;2023-07-20T07:09:45;3.83;;;3.50;;
10162;SDS011;5123;52.556;13.384;2023-07-20T07:12:19;2.97;;;2.40;;
10162;SDS011;5123;52.556;13.384;2023-07-20T07:14:51;3.50;;;2.90;;
10162;SDS011;5123;52.556;13.384;2023-07-20T07:17:25;3.07;;;2.80;;
10162;SDS011;5123;52.556;13.384;2023-07-20T07:19:59;2.83;;;2.50;;
10162;SDS011;5123;52.556;13.384;2023-07-20T07:22:32;2.97;;;2.33;;
10162;SDS011;5123;52.556;13.384;2023-07-20T07:25:08;2.30;;;2.10;;
10162;SDS011;5123;52.556;13.384;2023-07-20T07:27:41;2.40;;;2.20;;
10162;SDS011;5123;52.556;13.384;2023-07-20T07:30:14;2.60;;;1.90;;
10162;SDS011;5123;52.556;13.384;2023-07-20T07:32:47;3.37;;;2.13;;
10162;SDS011;5123;52.556;13.384;2023-07-20T07:35:20;2.20;;;1.90;;
10162;SDS011;5123;52.556;13.384;2023-07-20T07:37:53;2.53;;;1.90;;
10162;SDS011;5123;52.556;13.384;2023-07-20T07:40:45;5.10;;;2.37;;
10162;SDS011;5123;52.556;13.384;2023-07-20T07:43:18;2.17;;;1.77;;
10162;SDS011;5123;52.556;13.384;2023-07-20T07:45:53;1.80;;;1.70;;
10162;SDS011;5123;52.556;13.384;2023-07-20T07:48:26;2.57;;;1.87;;
10162;SDS011;5123;52.556;13.384;2023-07-20T07:50:59;4.50;;;2.03;;
10162;SDS011;5123;52.556;13.384;2023-07-20T07:53:32;2.87;;;2.23;;
10162;SDS011;5123;52.556;13.384;2023-07-20T07:56:08;2.10;;;1.77;;
10162;SDS011;5123;52.556;13.384;2023-07-20T07:58:41;2.17;;;1.30;;
10162;SDS011;5123;52.556;13.384;2023-07-20T08:01:13;1.80;;;1.70;;
10162;SDS011;5123;52.556;13.384;2023-07-20T08:03:46;2.00;;;1.57;;
10162;SDS011;5123;52.556;13.384;2023-07-20T08:06:22;1.70;;;1.60;;
10162;SDS011;5123;52.556;13.384;2023-07-20T08:08:55;1.67;;;1.57;;
10162;SDS011;5123;52.556;13.384;2023-07-20T08:11:32;1.57;;;1.40;;
10162;SDS011;5123;52.556;13.384;2023-07-20T08:14:05;3.53;;;1.53;;
10162;SDS011;5123;52.556;13.384;2023-07-20T08:16:38;1.40;;;1.30;;
10162;SDS011;5123;52.556;13.384;2023-07-20T08:19:12;3.50;;;1.30;;
10162;SDS011;5123;52.556;13.384;2023-07-20T08:21:50;2.07;;;1.67;;
10162;SDS011;5123;52.556;13.384;2023-07-20T08:24:24;1.40;;;1.30;;
10162;SDS011;5123;52.556;13.384;2023-07-20T08:26:58;1.67;;;1.53;;
10162;SDS011;5123;52.556;13.384;2023-07-20T08:29:31;2.17;;;1.50;;
10162;SDS011;5123;52.556;13.384;2023-07-20T08:32:05;1.50;;;1.30;;
10162;SDS011;5123;52.556;13.384;2023-07-20T08:34:38;1.40;;;1.30;;
10162;SDS011;5123;52.556;13.384;2023-07-20T08:37:11;1.37;;;1.03;;
10162;SDS011;5123;52.556;13.384;2023-07-20T08:39:43;3.80;;;1.37;;
10162;SDS011;5123;52.556;13.384;2023-07-20T08:42:18;1.67;;;1.30;;
10162;SDS011;5123;52.556;13.384;2023-07-20T08:44:50;1.97;;;1.00;;
10162;SDS011;5123;52.556;13.384;2023-07-20T08:47:24;1.40;;;1.00;;
10162;SDS011;5123;52.556;13.384;2023-07-20T08:49:58;2.37;;;0.90;;
10162;SDS011;5123;52.556;13.384;2023-07-20T08:52:37;0.80;;;0.80;;
10162;SDS011;5123;52.556;13.384;2023-07-20T08:55:09;1.40;;;1.30;;
10162;SDS011;5123;52.556;13.384;2023-07-20T08:57:48;2.30;;;1.20;;
10162;SDS011;5123;52.556;13.384;2023-07-20T09:00:22;1.63;;;1.27;;
10162;SDS011;5123;52.556;13.384;2023-07-20T09:02:57;1.87;;;0.80;;
10162;SDS011;5123;52.556;13.384;2023-07-20T09:05:31;0.90;;;0.90;;
10162;SDS011;5123;52.556;13.384;2023-07-20T09:08:04;1.20;;;1.00;;
10162;SDS011;5123;52.556;13.384;2023-07-20T09:10:37;1.70;;;0.90;;
10162;SDS011;5123;52.556;13.384;2023-07-20T09:13:11;1.20;;;1.07;;
10162;SDS011;5123;52.556;13.384;2023-07-20T09:15:46;1.57;;;0.80;;
10162;SDS011;5123;52.556;13.384;2023-07-20T09:18:28;1.57;;;0.93;;
10162;SDS011;5123;52.556;13.384;2023-07-20T09:21:01;1.00;;;1.00;;
10162;SDS011;5123;52.556;13.384;2023-07-20T09:23:35;1.13;;;1.00;;
10162;SDS011;5123;52.556;13.384;2023-07-20T09:26:11;3.30;;;1.10;;
10162;SDS011;5123;52.556;13.384;2023-07-20T09:28:47;1.77;;;1.00;;
10162;SDS011;5123;52.556;13.384;2023-07-20T09:31:20;1.10;;;1.00;;
10162;SDS011;5123;52.556;13.384;2023-07-20T09:33:56;2.60;;;1.00;;
10162;SDS011;5123;52.556;13.384;2023-07-20T09:36:33;1.70;;;0.97;;
10162;SDS011;5123;52.556;13.384;2023-07-20T09:39:08;1.37;;;1.00;;
10162;SDS011;5123;52.556;13.384;2023-07-20T09:41:41;1.23;;;1.00;;
10162;SDS011;5123;52.556;13.384;2023-07-20T09:44:19;1.30;;;1.03;;
10162;SDS011;5123;52.556;13.384;2023-07-20T09:46:55;1.57;;;1.47;;
10162;SDS011;5123;52.556;13.384;2023-07-20T09:49:32;1.00;;;0.90;;
10162;SDS011;5123;52.556;13.384;2023-07-20T09:52:10;2.17;;;1.40;;
10162;SDS011;5123;52.556;13.384;2023-07-20T09:54:46;1.20;;;1.10;;
10162;SDS011;5123;52.556;13.384;2023-07-20T09:57:19;2.00;;;1.20;;
10162;SDS011;5123;52.556;13.384;2023-07-20T09:59:54;1.17;;;1.07;;
10162;SDS011;5123;52.556;13.384;2023-07-20T10:02:49;2.40;;;1.60;;
10162;SDS011;5123;52.556;13.384;2023-07-20T10:05:22;1.30;;;1.20;;
10162;SDS011;5123;52.556;13.384;2023-07-20T10:07:56;2.80;;;1.33;;
10162;SDS011;5123;52.556;13.384;2023-07-20T10:10:33;1.70;;;1.33;;
10162;SDS011;5123;52.556;13.384;2023-07-20T10:13:09;1.90;;;1.30;;
10162;SDS011;5123;52.556;13.384;2023-07-20T10:15:45;1.77;;;1.47;;
10162;SDS011;5123;52.556;13.384;2023-07-20T10:18:21;1.40;;;1.10;;
10162;SDS011;5123;52.556;13.384;2023-07-20T10:20:56;1.50;;;1.20;;
10162;SDS011;5123;52.556;13.384;2023-07-20T10:23:32;1.40;;;1.30;;
10162;SDS011;5123;52.556;13.384;2023-07-20T10:26:05;1.00;;;0.90;;
10162;SDS011;5123;52.556;13.384;2023-07-20T10:28:40;1.03;;;1.03;;
10162;SDS011;5123;52.556;13.384;2023-07-20T10:31:14;1.00;;;1.00;;
10162;SDS011;5123;52.556;13.384;2023-07-20T10:33:47;1.53;;;1.00;;
10162;SDS011;5123;52.556;13.384;2023-07-20T10:36:24;2.27;;;1.30;;
10162;SDS011;5123;52.556;13.384;2023-07-20T10:38:59;1.67;;;1.27;;
10162;SDS011;5123;52.556;13.384;2023-07-20T10:41:33;1.53;;;1.27;;
10162;SDS011;5123;52.556;13.384;2023-07-20T10:44:09;1.73;;;1.30;;
10162;SDS011;5123;52.556;13.384;2023-07-20T10:46:46;2.03;;;1.00;;
10162;SDS011;5123;52.556;13.384;2023-07-20T10:49:19;2.10;;;1.67;;
10162;SDS011;5123;52.556;13.384;2023-07-20T10:51:58;2.03;;;1.30;;
10162;SDS011;5123;52.556;13.384;2023-07-20T10:54:35;1.87;;;1.30;;
10162;SDS011;5123;52.556;13.384;2023-07-20T10:57:22;1.03;;;1.00;;
10162;SDS011;5123;52.556;13.384;2023-07-20T11:00:07;1.93;;;1.13;;
10162;SDS011;5123;52.556;13.384;2023-07-20T11:02:45;1.43;;;1.13;;
10162;SDS011;5123;52.556;13.384;2023-07-20T11:05:37;1.20;;;1.10;;
10162;SDS011;5123;52.556;13.384;2023-07-20T11:08:12;1.00;;;1.00;;
10162;SDS011;5123;52.556;13.384;2023-07-20T11:10:45;1.03;;;1.00;;
10162;SDS011;5123;52.556;13.384;2023-07-20T11:13:19;1.37;;;1.20;;
10162;SDS011;5123;52.556;13.384;2023-07-20T11:16:02;1.30;;;1.20;;
10162;SDS011;5123;52.556;13.384;2023-07-20T11:18:37;1.53;;;1.00;;
10162;SDS011;5123;52.556;13.384;2023-07-20T11:21:12;1.77;;;1.20;;
10162;SDS011;5123;52.556;13.384;2023-07-20T11:23:44;1.10;;;1.00;;
10162;SDS011;5123;52.556;13.384;2023-07-20T11:26:19;1.47;;;1.10;;
10162;SDS011;5123;52.556;13.384;2023-07-20T11:28:52;1.40;;;1.10;;
10162;SDS011;5123;52.556;13.384;2023-07-20T11:31:25;2.13;;;1.33;;
10162;SDS011;5123;52.556;13.384;2023-07-20T11:33:59;1.17;;;1.07;;
10162;SDS011;5123;52.556;13.384;2023-07-20T11:36:35;0.90;;;0.90;;
10162;SDS011;5123;52.556;13.384;2023-07-20T11:39:11;1.00;;;0.90;;
10162;SDS011;5123;52.556;13.384;2023-07-20T11:41:45;1.47;;;1.00;;
10162;SDS011;5123;52.556;13.384;2023-07-20T11:44:19;1.53;;;1.03;;
10162;SDS011;5123;52.556;13.384;2023-07-20T11:47:02;3.10;;;0.87;;
10162;SDS011;5123;52.556;13.384;2023-07-20T11:49:37;1.77;;;1.60;;
10162;SDS011;5123;52.556;13.384;2023-07-20T11:52:10;3.07;;;1.10;;
10162;SDS011;5123;52.556;13.384;2023-07-20T11:54:43;1.43;;;1.33;;
10162;SDS011;5123;52.556;13.384;2023-07-20T11:57:20;1.57;;;1.30;;
10162;SDS011;5123;52.556;13.384;2023-07-20T11:59:53;1.67;;;1.30;;
10162;SDS011;5123;52.556;13.384;2023-07-20T12:02:28;1.20;;;1.10;;
10162;SDS011;5123;52.556;13.384;2023-07-20T12:05:05;1.23;;;1.10;;
10162;SDS011;5123;52.556;13.384;2023-07-20T12:07:38;6.87;;;1.47;;
10162;SDS011;5123;52.556;13.384;2023-07-20T12:10:12;1.93;;;1.47;;
10162;SDS011;5123;52.556;13.384;2023-07-20T12:12:45;1.13;;;1.03;;
10162;SDS011;5123;52.556;13.384;2023-07-20T12:15:24;2.47;;;1.10;;
10162;SDS011;5123;52.556;13.384;2023-07-20T12:17:58;2.70;;;1.00;;
10162;SDS011;5123;52.556;13.384;2023-07-20T12:20:32;1.80;;;1.10;;
10162;SDS011;5123;52.556;13.384;2023-07-20T12:23:08;1.00;;;0.83;;
10162;SDS011;5123;52.556;13.384;2023-07-20T12:25:41;2.00;;;1.20;;
10162;SDS011;5123;52.556;13.384;2023-07-20T12:28:16;1.00;;;1.00;;
10162;SDS011;5123;52.556;13.384;2023-07-20T12:30:49;1.20;;;1.10;;
10162;SDS011;5123;52.556;13.384;2023-07-20T12:33:28;1.10;;;0.93;;
10162;SDS011;5123;52.556;13.384;2023-07-20T12:36:02;1.07;;;0.97;;
10162;SDS011;5123;52.556;13.384;2023-07-20T12:38:35;1.10;;;1.00;;
10162;SDS011;5123;52.556;13.384;2023-07-20T12:41:09;0.83;;;0.83;;
10162;SDS011;5123;52.556;13.384;2023-07-20T12:43:44;1.37;;;1.03;;
10162;SDS011;5123;52.556;13.384;2023-07-20T12:46:17;0.93;;;0.93;;
10162;SDS011;5123;52.556;13.384;2023-07-20T12:48:50;0.87;;;0.80;;
10162;SDS011;5123;52.556;13.384;2023-07-20T12:51:24;1.53;;;1.00;;
10162;SDS011;5123;52.556;13.384;2023-07-20T12:53:57;1.67;;;0.97;;
10162;SDS011;5123;52.556;13.384;2023-07-20T12:56:30;1.27;;;1.17;;
10162;SDS011;5123;52.556;13.384;2023-07-20T12:59:05;1.10;;;1.00;;
10162;SDS011;5123;52.556;13.384;2023-07-20T13:01:39;1.10;;;1.00;;
10162;SDS011;5123;52.556;13.384;2023-07-20T13:04:13;1.10;;;1.00;;
10162;SDS011;5123;52.556;13.384;2023-07-20T13:06:47;0.83;;;0.83;;
10162;SDS011;5123;52.556;13.384;2023-07-20T13:09:20;0.70;;;0.63;;
10162;SDS011;5123;52.556;13.384;2023-07-20T13:11:53;1.00;;;0.90;;
10162;SDS011;5123;52.556;13.384;2023-07-20T13:14:28;4.73;;;4.00;;
10162;SDS011;5123;52.556;13.384;2023-07-20T13:17:01;1.00;;;1.00;;
10162;SDS011;5123;52.556;13.384;2023-07-20T13:19:34;1.83;;;0.90;;
10162;SDS011;5123;52.556;13.384;2023-07-20T13:22:08;0.80;;;0.80;;
10162;SDS011;5123;52.556;13.384;2023-07-20T13:24:44;1.37;;;1.27;;
10162;SDS011;5123;52.556;13.384;2023-07-20T13:27:17;13.67;;;11.70;;
10162;SDS011;5123;52.556;13.384;2023-07-20T13:29:50;1.70;;;1.17;;
10162;SDS011;5123;52.556;13.384;2023-07-20T13:32:24;0.90;;;0.90;;
10162;SDS011;5123;52.556;13.384;2023-07-20T13:34:57;0.93;;;0.90;;
10162;SDS011;5123;52.556;13.384;2023-07-20T13:37:31;1.23;;;0.90;;
10162;SDS011;5123;52.556;13.384;2023-07-20T13:40:05;0.80;;;0.80;;
10162;SDS011;5123;52.556;13.384;2023-07-20T13:42:41;2.80;;;1.23;;
10162;SDS011;5123;52.556;13.384;2023-07-20T13:45:14;1.80;;;0.90;;
10162;SDS011;5123;52.556;13.384;2023-07-20T13:47:47;2.70;;;1.00;;
10162;SDS011;5123;52.556;13.384;2023-07-20T13:50:22;1.10;;;1.00;;
10162;SDS011;5123;52.556;13.384;2023-07-20T13:52:59;1.83;;;1.00;;
10162;SDS011;5123;52.556;13.384;2023-07-20T13:55:37;1.00;;;0.90;;
10162;SDS011;5123;52.556;13.384;2023-07-20T13:58:15;1.43;;;0.83;;
10162;SDS011;5123;52.556;13.384;2023-07-20T14:00:48;1.20;;;1.10;;
10162;SDS011;5123;52.556;13.384;2023-07-20T14:03:20;3.73;;;1.20;;
10162;SDS011;5123;52.556;13.384;2023-07-20T14:05:53;0.90;;;0.90;;
10162;SDS011;5123;52.556;13.384;2023-07-20T14:08:31;1.33;;;0.90;;
10162;SDS011;5123;52.556;13.384;2023-07-20T14:11:04;1.30;;;1.13;;
10162;SDS011;5123;52.556;13.384;2023-07-20T14:13:43;1.37;;;0.90;;
10162;SDS011;5123;52.556;13.384;2023-07-20T14:16:18;0.83;;;0.83;;
10162;SDS011;5123;52.556;13.384;2023-07-20T14:18:51;0.90;;;0.90;;
10162;SDS011;5123;52.556;13.384;2023-07-20T14:21:27;0.90;;;0.80;;
10162;SDS011;5123;52.556;13.384;2023-07-20T14:24:01;1.97;;;0.80;;
10162;SDS011;5123;52.556;13.384;2023-07-20T14:26:34;1.00;;;0.90;;
10162;SDS011;5123;52.556;13.384;2023-07-20T14:29:07;0.87;;;0.80;;
10162;SDS011;5123;52.556;13.384;2023-07-20T14:31:40;1.10;;;0.90;;
10162;SDS011;5123;52.556;13.384;2023-07-20T14:34:12;0.87;;;0.83;;
10162;SDS011;5123;52.556;13.384;2023-07-20T14:36:46;1.03;;;0.93;;
10162;SDS011;5123;52.556;13.384;2023-07-20T14:39:21;4.90;;;1.13;;
10162;SDS011;5123;52.556;13.384;2023-07-20T14:41:54;2.20;;;1.00;;
10162;SDS011;5123;52.556;13.384;2023-07-20T14:44:26;1.10;;;0.83;;
10162;SDS011;5123;52.556;13.384;2023-07-20T14:46:59;1.07;;;0.97;;
10162;SDS011;5123;52.556;13.384;2023-07-20T14:49:44;0.80;;;0.80;;
10162;SDS011;5123;52.556;13.384;2023-07-20T14:52:17;0.97;;;0.87;;
10162;SDS011;5123;52.556;13.384;2023-07-20T14:54:51;1.43;;;1.03;;
10162;SDS011;5123;52.556;13.384;2023-07-20T14:57:24;1.00;;;0.90;;
10162;SDS011;5123;52.556;13.384;2023-07-20T14:59:57;1.13;;;1.03;;
10162;SDS011;5123;52.556;13.384;2023-07-20T15:02:29;2.13;;;1.10;;
10162;SDS011;5123;52.556;13.384;2023-07-20T15:05:02;2.60;;;0.90;;
10162;SDS011;5123;52.556;13.384;2023-07-20T15:07:36;3.07;;;0.90;;
10162;SDS011;5123;52.556;13.384;2023-07-20T15:10:10;1.30;;;0.87;;
10162;SDS011;5123;52.556;13.384;2023-07-20T15:12:43;1.40;;;1.00;;
10162;SDS011;5123;52.556;13.384;2023-07-20T15:15:19;0.80;;;0.80;;
10162;SDS011;5123;52.556;13.384;2023-07-20T15:17:52;1.13;;;1.03;;
10162;SDS011;5123;52.556;13.384;2023-07-20T15:20:25;2.40;;;1.00;;
10162;SDS011;5123;52.556;13.384;2023-07-20T15:22:59;1.73;;;1.00;;
10162;SDS011;5123;52.556;13.384;2023-07-20T15:25:33;1.97;;;0.90;;